sensor_id;sensor_type;location;lat;lon;timestamp;noise_LAeq;noise_LA_min;noise_LA_max;noise_LA01;noise_LA95
60872;Laerm;46714;50.118;14.462;2024-03-23T00:55:42;67.91;58.15;75.49;;
60872;Laerm;46714;50.118;14.462;2024-03-23T00:58:08;69.94;54.20;79.86;;
60872;Laerm;46714;50.118;14.462;2024-03-23T01:00:33;68.71;60.66;74.13;;
60872;Laerm;46714;50.118;14.462;2024-03-23T01:02:59;66.98;48.99;76.20;;
60872;Laerm;46714;50.118;14.462;2024-03-23T01:05:24;68.30;51.11;77.99;;
60872;Laerm;46714;50.118;14.462;2024-03-23T01:07:49;68.51;56.87;76.54;;
60872;Laerm;46714;50.118;14.462;2024-03-23T01:10:15;67.41;58.23;78.12;;
60872;Laerm;46714;50.118;14.462;2024-03-23T01:12:40;67.77;50.47;78.46;;
60872;Laerm;46714;50.118;14.462;2024-03-23T01:15:05;67.79;49.56;77.19;;
60872;Laerm;46714;50.118;14.462;2024-03-23T01:17:31;67.21;49.56;75.13;;
60872;Laerm;46714;50.118;14.462;2024-03-23T01:19:57;69.39;52.85;80.85;;
60872;Laerm;46714;50.118;14.462;2024-03-23T01:22:22;66.26;49.71;73.18;;
60872;Laerm;46714;50.118;14.462;2024-03-23T01:24:47;68.82;58.10;76.24;;
60872;Laerm;46714;50.118;14.462;2024-03-23T01:27:13;66.37;47.91;74.86;;
60872;Laerm;46714;50.118;14.462;2024-03-23T01:29:38;67.58;57.99;74.63;;
60872;Laerm;46714;50.118;14.462;2024-03-23T01:32:04;67.84;49.93;76.09;;
60872;Laerm;46714;50.118;14.462;2024-03-23T01:34:30;67.18;56.83;76.71;;
60872;Laerm;46714;50.118;14.462;2024-03-23T01:36:55;69.62;55.89;75.31;;
60872;Laerm;46714;50.118;14.462;2024-03-23T01:39:20;65.60;51.75;74.12;;
60872;Laerm;46714;50.118;14.462;2024-03-23T01:41:46;65.74;48.52;75.53;;
60872;Laerm;46714;50.118;14.462;2024-03-23T01:44:11;69.77;60.95;78.54;;
60872;Laerm;46714;50.118;14.462;2024-03-23T01:46:37;68.53;55.82;78.87;;
60872;Laerm;46714;50.118;14.462;2024-03-23T01:49:04;67.36;53.14;75.97;;
60872;Laerm;46714;50.118;14.462;2024-03-23T01:51:30;68.36;58.01;78.16;;
60872;Laerm;46714;50.118;14.462;2024-03-23T01:53:56;67.66;53.44;77.36;;
60872;Laerm;46714;50.118;14.462;2024-03-23T01:56:22;67.14;49.78;74.59;;
60872;Laerm;46714;50.118;14.462;2024-03-23T01:58:47;67.07;54.71;76.82;;
60872;Laerm;46714;50.118;14.462;2024-03-23T02:01:12;65.66;44.90;76.34;;
60872;Laerm;46714;50.118;14.462;2024-03-23T02:03:37;65.36;50.69;72.77;;
60872;Laerm;46714;50.118;14.462;2024-03-23T02:06:03;67.02;51.47;76.67;;
60872;Laerm;46714;50.118;14.462;2024-03-23T02:08:30;67.22;53.96;74.22;;
60872;Laerm;46714;50.118;14.462;2024-03-23T02:10:56;66.42;54.88;74.56;;
60872;Laerm;46714;50.118;14.462;2024-03-23T02:13:21;66.42;48.32;74.15;;
60872;Laerm;46714;50.118;14.462;2024-03-23T02:15:48;67.52;53.02;76.36;;
60872;Laerm;46714;50.118;14.462;2024-03-23T02:18:13;68.07;54.48;77.48;;
60872;Laerm;46714;50.118;14.462;2024-03-23T02:20:39;66.86;53.44;77.03;;
60872;Laerm;46714;50.118;14.462;2024-03-23T02:23:05;67.70;55.12;76.19;;
60872;Laerm;46714;50.118;14.462;2024-03-23T02:25:33;66.52;50.28;75.54;;
60872;Laerm;46714;50.118;14.462;2024-03-23T02:27:59;66.09;49.14;73.82;;
60872;Laerm;46714;50.118;14.462;2024-03-23T02:30:25;66.54;53.35;76.48;;
60872;Laerm;46714;50.118;14.462;2024-03-23T02:32:51;66.90;54.50;74.69;;
60872;Laerm;46714;50.118;14.462;2024-03-23T02:35:16;67.91;49.12;76.28;;
60872;Laerm;46714;50.118;14.462;2024-03-23T02:37:42;66.53;45.97;74.39;;
60872;Laerm;46714;50.118;14.462;2024-03-23T02:40:07;64.90;50.69;73.13;;
60872;Laerm;46714;50.118;14.462;2024-03-23T02:42:33;66.03;49.49;74.69;;
60872;Laerm;46714;50.118;14.462;2024-03-23T02:44:58;66.72;48.69;76.07;;
60872;Laerm;46714;50.118;14.462;2024-03-23T02:47:24;67.27;51.02;74.83;;
60872;Laerm;46714;50.118;14.462;2024-03-23T02:49:49;67.49;50.38;81.20;;
60872;Laerm;46714;50.118;14.462;2024-03-23T02:52:14;67.61;47.83;76.17;;
60872;Laerm;46714;50.118;14.462;2024-03-23T02:54:40;67.00;51.52;75.83;;
60872;Laerm;46714;50.118;14.462;2024-03-23T02:57:07;64.97;47.57;73.19;;
60872;Laerm;46714;50.118;14.462;2024-03-23T02:59:32;66.22;53.64;73.77;;
60872;Laerm;46714;50.118;14.462;2024-03-23T03:01:58;65.58;51.64;73.75;;
60872;Laerm;46714;50.118;14.462;2024-03-23T03:04:25;66.51;54.29;75.78;;
60872;Laerm;46714;50.118;14.462;2024-03-23T03:06:50;68.45;53.72;75.94;;
60872;Laerm;46714;50.118;14.462;2024-03-23T03:09:15;68.74;54.54;80.19;;
60872;Laerm;46714;50.118;14.462;2024-03-23T03:11:41;66.80;48.28;75.67;;
60872;Laerm;46714;50.118;14.462;2024-03-23T03:14:06;68.53;52.04;76.57;;
60872;Laerm;46714;50.118;14.462;2024-03-23T03:16:33;66.26;50.45;74.71;;
60872;Laerm;46714;50.118;14.462;2024-03-23T03:18:58;66.38;52.29;75.51;;
60872;Laerm;46714;50.118;14.462;2024-03-23T03:21:24;67.91;55.50;74.07;;
60872;Laerm;46714;50.118;14.462;2024-03-23T03:23:49;64.66;46.47;73.96;;
60872;Laerm;46714;50.118;14.462;2024-03-23T03:26:16;66.63;51.68;74.05;;
60872;Laerm;46714;50.118;14.462;2024-03-23T03:28:42;66.95;52.02;74.46;;
60872;Laerm;46714;50.118;14.462;2024-03-23T03:31:08;64.99;46.73;74.26;;
60872;Laerm;46714;50.118;14.462;2024-03-23T03:33:33;67.43;49.27;76.34;;
60872;Laerm;46714;50.118;14.462;2024-03-23T03:35:59;66.66;46.34;76.07;;
60872;Laerm;46714;50.118;14.462;2024-03-23T03:38:24;64.80;51.62;73.90;;
60872;Laerm;46714;50.118;14.462;2024-03-23T03:40:49;68.38;56.02;76.25;;
60872;Laerm;46714;50.118;14.462;2024-03-23T03:43:15;66.17;51.59;74.95;;
60872;Laerm;46714;50.118;14.462;2024-03-23T03:45:40;68.51;51.22;77.09;;
60872;Laerm;46714;50.118;14.462;2024-03-23T03:48:06;66.47;47.32;74.45;;
60872;Laerm;46714;50.118;14.462;2024-03-23T03:50:31;66.43;48.77;75.50;;
60872;Laerm;46714;50.118;14.462;2024-03-23T03:52:57;66.54;55.87;75.27;;
60872;Laerm;46714;50.118;14.462;2024-03-23T03:55:22;66.91;53.12;76.82;;
60872;Laerm;46714;50.118;14.462;2024-03-23T03:57:47;67.98;53.33;75.49;;
60872;Laerm;46714;50.118;14.462;2024-03-23T04:00:13;67.33;52.18;74.64;;
60872;Laerm;46714;50.118;14.462;2024-03-23T04:02:39;66.10;49.02;74.56;;
60872;Laerm;46714;50.118;14.462;2024-03-23T04:05:05;68.38;60.90;75.90;;
60872;Laerm;46714;50.118;14.462;2024-03-23T04:07:31;66.02;51.12;75.50;;
60872;Laerm;46714;50.118;14.462;2024-03-23T04:09:56;68.35;55.65;79.90;;
60872;Laerm;46714;50.118;14.462;2024-03-23T04:12:21;67.20;52.85;73.86;;
60872;Laerm;46714;50.118;14.462;2024-03-23T04:14:47;67.72;50.70;77.68;;
60872;Laerm;46714;50.118;14.462;2024-03-23T04:17:12;68.93;50.69;77.24;;
60872;Laerm;46714;50.118;14.462;2024-03-23T04:19:37;66.64;53.61;74.67;;
60872;Laerm;46714;50.118;14.462;2024-03-23T04:22:03;69.90;56.57;81.59;;
60872;Laerm;46714;50.118;14.462;2024-03-23T04:24:29;67.50;58.70;73.80;;
60872;Laerm;46714;50.118;14.462;2024-03-23T04:26:54;67.09;57.63;74.09;;
60872;Laerm;46714;50.118;14.462;2024-03-23T04:29:20;67.37;52.02;77.67;;
60872;Laerm;46714;50.118;14.462;2024-03-23T04:31:45;68.90;57.70;76.94;;
60872;Laerm;46714;50.118;14.462;2024-03-23T04:34:11;68.60;56.02;84.65;;
60872;Laerm;46714;50.118;14.462;2024-03-23T04:36:36;67.46;55.67;75.26;;
60872;Laerm;46714;50.118;14.462;2024-03-23T04:39:01;68.46;54.60;76.37;;
60872;Laerm;46714;50.118;14.462;2024-03-23T04:41:27;69.24;57.75;79.21;;
60872;Laerm;46714;50.118;14.462;2024-03-23T04:43:52;69.61;56.76;79.39;;
60872;Laerm;46714;50.118;14.462;2024-03-23T04:46:18;69.82;59.35;78.99;;
60872;Laerm;46714;50.118;14.462;2024-03-23T04:48:43;68.40;57.68;74.84;;
60872;Laerm;46714;50.118;14.462;2024-03-23T04:51:21;69.59;60.37;76.89;;
60872;Laerm;46714;50.118;14.462;2024-03-23T04:53:47;68.92;60.01;77.83;;
60872;Laerm;46714;50.118;14.462;2024-03-23T04:56:13;69.49;63.46;77.02;;
60872;Laerm;46714;50.118;14.462;2024-03-23T04:58:39;69.09;60.72;75.56;;
60872;Laerm;46714;50.118;14.462;2024-03-23T05:01:04;70.19;61.50;78.46;;
60872;Laerm;46714;50.118;14.462;2024-03-23T05:03:29;68.75;58.99;75.05;;
60872;Laerm;46714;50.118;14.462;2024-03-23T05:05:54;69.91;61.08;76.82;;
60872;Laerm;46714;50.118;14.462;2024-03-23T05:08:20;69.07;55.97;76.02;;
60872;Laerm;46714;50.118;14.462;2024-03-23T05:10:45;71.09;63.12;79.52;;
60872;Laerm;46714;50.118;14.462;2024-03-23T05:13:11;69.90;62.16;76.13;;
60872;Laerm;46714;50.118;14.462;2024-03-23T05:15:37;72.01;62.72;81.19;;
60872;Laerm;46714;50.118;14.462;2024-03-23T05:18:03;70.39;62.73;76.22;;
60872;Laerm;46714;50.118;14.462;2024-03-23T05:20:30;71.30;63.67;77.58;;
60872;Laerm;46714;50.118;14.462;2024-03-23T05:22:55;75.03;61.50;93.82;;
60872;Laerm;46714;50.118;14.462;2024-03-23T05:25:21;71.71;64.95;80.02;;
60872;Laerm;46714;50.118;14.462;2024-03-23T05:27:46;73.24;62.05;87.38;;
60872;Laerm;46714;50.118;14.462;2024-03-23T05:30:11;70.58;62.00;75.76;;
60872;Laerm;46714;50.118;14.462;2024-03-23T05:32:37;72.15;64.83;78.67;;
60872;Laerm;46714;50.118;14.462;2024-03-23T05:35:09;70.19;63.22;75.47;;
60872;Laerm;46714;50.118;14.462;2024-03-23T05:37:34;71.10;62.68;77.64;;
60872;Laerm;46714;50.118;14.462;2024-03-23T05:40:00;72.65;65.88;80.39;;
60872;Laerm;46714;50.118;14.462;2024-03-23T05:42:25;72.23;64.47;77.94;;
60872;Laerm;46714;50.118;14.462;2024-03-23T05:44:51;71.25;63.01;76.05;;
60872;Laerm;46714;50.118;14.462;2024-03-23T05:47:17;70.46;60.52;76.21;;
60872;Laerm;46714;50.118;14.462;2024-03-23T05:49:43;71.28;62.96;78.16;;
60872;Laerm;46714;50.118;14.462;2024-03-23T05:52:09;72.16;65.06;77.17;;
60872;Laerm;46714;50.118;14.462;2024-03-23T05:54:37;72.19;63.91;81.26;;
60872;Laerm;46714;50.118;14.462;2024-03-23T05:57:03;71.59;60.68;77.73;;
60872;Laerm;46714;50.118;14.462;2024-03-23T05:59:29;71.32;63.94;77.42;;
60872;Laerm;46714;50.118;14.462;2024-03-23T06:01:54;80.56;63.85;102.72;;
60872;Laerm;46714;50.118;14.462;2024-03-23T06:04:20;71.97;66.17;76.72;;
60872;Laerm;46714;50.118;14.462;2024-03-23T06:06:46;71.76;62.30;77.02;;
60872;Laerm;46714;50.118;14.462;2024-03-23T06:09:11;72.15;64.50;79.06;;
60872;Laerm;46714;50.118;14.462;2024-03-23T06:11:37;72.06;66.11;77.79;;
60872;Laerm;46714;50.118;14.462;2024-03-23T06:14:02;73.07;64.75;80.86;;
60872;Laerm;46714;50.118;14.462;2024-03-23T06:16:27;72.90;65.31;88.29;;
60872;Laerm;46714;50.118;14.462;2024-03-23T06:18:53;73.35;66.88;79.05;;
60872;Laerm;46714;50.118;14.462;2024-03-23T06:21:20;73.57;64.44;83.10;;
60872;Laerm;46714;50.118;14.462;2024-03-23T06:23:46;72.62;66.67;77.77;;
60872;Laerm;46714;50.118;14.462;2024-03-23T06:26:18;72.79;64.42;84.31;;
60872;Laerm;46714;50.118;14.462;2024-03-23T06:28:44;72.28;64.50;79.23;;
60872;Laerm;46714;50.118;14.462;2024-03-23T06:31:10;73.26;62.40;78.06;;
60872;Laerm;46714;50.118;14.462;2024-03-23T06:33:35;73.16;64.71;77.90;;
60872;Laerm;46714;50.118;14.462;2024-03-23T06:36:01;73.80;66.69;82.57;;
60872;Laerm;46714;50.118;14.462;2024-03-23T06:38:27;72.78;63.77;78.92;;
60872;Laerm;46714;50.118;14.462;2024-03-23T06:40:52;72.88;65.75;77.79;;
60872;Laerm;46714;50.118;14.462;2024-03-23T06:43:18;73.67;67.68;79.81;;
60872;Laerm;46714;50.118;14.462;2024-03-23T06:45:43;73.46;68.12;78.38;;
60872;Laerm;46714;50.118;14.462;2024-03-23T06:48:09;72.57;66.73;78.27;;
60872;Laerm;46714;50.118;14.462;2024-03-23T06:50:34;73.16;64.81;77.75;;
60872;Laerm;46714;50.118;14.462;2024-03-23T06:53:00;73.62;69.11;78.42;;
60872;Laerm;46714;50.118;14.462;2024-03-23T06:55:27;73.14;68.01;80.70;;
60872;Laerm;46714;50.118;14.462;2024-03-23T06:57:53;73.81;68.30;79.01;;
60872;Laerm;46714;50.118;14.462;2024-03-23T07:00:18;73.46;67.07;81.01;;
60872;Laerm;46714;50.118;14.462;2024-03-23T07:02:44;72.44;63.59;78.08;;
60872;Laerm;46714;50.118;14.462;2024-03-23T07:05:10;73.44;68.18;79.64;;
60872;Laerm;46714;50.118;14.462;2024-03-23T07:07:36;73.29;67.16;78.06;;
60872;Laerm;46714;50.118;14.462;2024-03-23T07:10:02;73.11;67.63;77.64;;
60872;Laerm;46714;50.118;14.462;2024-03-23T07:12:28;73.21;67.84;78.06;;
60872;Laerm;46714;50.118;14.462;2024-03-23T07:14:53;73.96;65.21;82.09;;
60872;Laerm;46714;50.118;14.462;2024-03-23T07:17:19;72.80;65.11;78.52;;
60872;Laerm;46714;50.118;14.462;2024-03-23T07:19:44;73.93;68.55;78.37;;
60872;Laerm;46714;50.118;14.462;2024-03-23T07:22:09;74.61;69.51;84.14;;
60872;Laerm;46714;50.118;14.462;2024-03-23T07:24:35;74.43;68.75;80.29;;
60872;Laerm;46714;50.118;14.462;2024-03-23T07:27:01;73.73;67.30;77.43;;
60872;Laerm;46714;50.118;14.462;2024-03-23T07:29:27;75.34;68.02;93.37;;
60872;Laerm;46714;50.118;14.462;2024-03-23T07:31:52;73.31;67.28;78.22;;
60872;Laerm;46714;50.118;14.462;2024-03-23T07:34:18;73.52;68.26;78.35;;
60872;Laerm;46714;50.118;14.462;2024-03-23T07:36:43;73.89;68.51;77.28;;
60872;Laerm;46714;50.118;14.462;2024-03-23T07:39:09;73.65;66.43;82.36;;
60872;Laerm;46714;50.118;14.462;2024-03-23T07:41:34;77.63;67.46;98.55;;
60872;Laerm;46714;50.118;14.462;2024-03-23T07:44:00;73.57;68.11;78.88;;
60872;Laerm;46714;50.118;14.462;2024-03-23T07:46:26;73.59;66.14;77.35;;
60872;Laerm;46714;50.118;14.462;2024-03-23T07:48:52;83.87;69.68;102.94;;
60872;Laerm;46714;50.118;14.462;2024-03-23T07:51:20;74.07;66.83;85.59;;
60872;Laerm;46714;50.118;14.462;2024-03-23T07:53:45;73.98;67.49;79.39;;
60872;Laerm;46714;50.118;14.462;2024-03-23T07:56:14;73.90;67.74;80.93;;
60872;Laerm;46714;50.118;14.462;2024-03-23T07:58:44;72.84;65.87;78.25;;
60872;Laerm;46714;50.118;14.462;2024-03-23T08:01:17;73.83;67.23;79.12;;
60872;Laerm;46714;50.118;14.462;2024-03-23T08:03:46;73.70;68.84;78.35;;
60872;Laerm;46714;50.118;14.462;2024-03-23T08:06:15;74.10;67.25;81.86;;
60872;Laerm;46714;50.118;14.462;2024-03-23T08:08:42;73.53;67.40;80.81;;
60872;Laerm;46714;50.118;14.462;2024-03-23T08:11:08;74.14;69.87;79.32;;
60872;Laerm;46714;50.118;14.462;2024-03-23T08:13:34;73.97;68.87;81.37;;
60872;Laerm;46714;50.118;14.462;2024-03-23T08:16:01;73.33;67.45;76.68;;
60872;Laerm;46714;50.118;14.462;2024-03-23T08:18:27;74.33;68.34;84.75;;
60872;Laerm;46714;50.118;14.462;2024-03-23T08:20:59;73.33;66.23;77.69;;
60872;Laerm;46714;50.118;14.462;2024-03-23T08:23:26;73.21;66.89;77.61;;
60872;Laerm;46714;50.118;14.462;2024-03-23T08:25:52;73.73;67.51;78.94;;
60872;Laerm;46714;50.118;14.462;2024-03-23T08:28:22;73.89;67.99;78.59;;
60872;Laerm;46714;50.118;14.462;2024-03-23T08:30:47;73.76;67.78;78.66;;
60872;Laerm;46714;50.118;14.462;2024-03-23T08:33:14;73.88;68.22;78.86;;
60872;Laerm;46714;50.118;14.462;2024-03-23T08:35:41;73.55;68.70;81.07;;
60872;Laerm;46714;50.118;14.462;2024-03-23T08:38:06;73.84;68.47;82.99;;
60872;Laerm;46714;50.118;14.462;2024-03-23T08:40:32;73.79;67.53;79.23;;
60872;Laerm;46714;50.118;14.462;2024-03-23T08:42:57;73.80;67.78;78.47;;
60872;Laerm;46714;50.118;14.462;2024-03-23T08:45:24;74.28;68.58;83.21;;
60872;Laerm;46714;50.118;14.462;2024-03-23T08:47:50;74.54;71.07;80.41;;
60872;Laerm;46714;50.118;14.462;2024-03-23T08:50:15;74.24;67.60;79.95;;
60872;Laerm;46714;50.118;14.462;2024-03-23T08:52:41;74.02;69.59;79.25;;
60872;Laerm;46714;50.118;14.462;2024-03-23T08:55:06;73.83;69.23;77.54;;
60872;Laerm;46714;50.118;14.462;2024-03-23T08:57:32;73.24;69.60;77.65;;
60872;Laerm;46714;50.118;14.462;2024-03-23T08:59:57;73.67;68.53;78.61;;
60872;Laerm;46714;50.118;14.462;2024-03-23T09:02:23;74.22;67.92;78.59;;
60872;Laerm;46714;50.118;14.462;2024-03-23T09:04:48;74.43;69.95;79.98;;
60872;Laerm;46714;50.118;14.462;2024-03-23T09:07:14;74.55;69.59;82.71;;
60872;Laerm;46714;50.118;14.462;2024-03-23T09:09:39;74.02;69.64;77.62;;
60872;Laerm;46714;50.118;14.462;2024-03-23T09:12:05;73.67;66.16;77.64;;
60872;Laerm;46714;50.118;14.462;2024-03-23T09:14:32;73.44;69.53;77.42;;
60872;Laerm;46714;50.118;14.462;2024-03-23T09:16:57;74.21;67.04;82.48;;
60872;Laerm;46714;50.118;14.462;2024-03-23T09:19:23;74.55;68.29;88.65;;
60872;Laerm;46714;50.118;14.462;2024-03-23T09:21:49;74.37;69.20;80.51;;
60872;Laerm;46714;50.118;14.462;2024-03-23T09:24:14;73.94;67.67;78.46;;
60872;Laerm;46714;50.118;14.462;2024-03-23T09:26:40;78.21;69.72;101.02;;
60872;Laerm;46714;50.118;14.462;2024-03-23T09:29:05;74.35;68.45;80.27;;
60872;Laerm;46714;50.118;14.462;2024-03-23T09:31:30;75.92;67.64;98.70;;
60872;Laerm;46714;50.118;14.462;2024-03-23T09:33:57;73.53;68.15;79.74;;
60872;Laerm;46714;50.118;14.462;2024-03-23T09:36:23;74.01;69.18;79.49;;
60872;Laerm;46714;50.118;14.462;2024-03-23T09:38:48;79.58;69.02;100.49;;
60872;Laerm;46714;50.118;14.462;2024-03-23T09:41:14;73.82;67.37;77.58;;
60872;Laerm;46714;50.118;14.462;2024-03-23T09:43:40;73.63;67.77;77.50;;
60872;Laerm;46714;50.118;14.462;2024-03-23T09:46:05;73.51;67.29;78.55;;
60872;Laerm;46714;50.118;14.462;2024-03-23T09:48:31;74.18;68.16;78.70;;
60872;Laerm;46714;50.118;14.462;2024-03-23T09:50:56;74.22;69.58;82.24;;
60872;Laerm;46714;50.118;14.462;2024-03-23T09:53:22;74.66;71.17;78.88;;
60872;Laerm;46714;50.118;14.462;2024-03-23T09:55:48;74.60;67.33;86.62;;
60872;Laerm;46714;50.118;14.462;2024-03-23T09:58:15;74.69;70.21;82.36;;
60872;Laerm;46714;50.118;14.462;2024-03-23T10:00:41;74.57;70.58;80.51;;
60872;Laerm;46714;50.118;14.462;2024-03-23T10:03:06;74.46;68.06;81.56;;
60872;Laerm;46714;50.118;14.462;2024-03-23T10:05:32;74.37;70.35;78.09;;
60872;Laerm;46714;50.118;14.462;2024-03-23T10:10:38;74.19;70.02;78.22;;
60872;Laerm;46714;50.118;14.462;2024-03-23T10:13:03;74.43;69.36;79.18;;
60872;Laerm;46714;50.118;14.462;2024-03-23T10:15:29;76.36;69.37;97.15;;
60872;Laerm;46714;50.118;14.462;2024-03-23T10:17:54;74.36;68.01;77.78;;
60872;Laerm;46714;50.118;14.462;2024-03-23T10:20:21;74.19;70.03;78.10;;
60872;Laerm;46714;50.118;14.462;2024-03-23T10:22:50;74.46;69.72;92.78;;
60872;Laerm;46714;50.118;14.462;2024-03-23T10:25:22;74.63;70.19;79.62;;
60872;Laerm;46714;50.118;14.462;2024-03-23T10:28:00;74.66;69.19;81.88;;
60872;Laerm;46714;50.118;14.462;2024-03-23T10:30:26;74.22;70.44;77.68;;
60872;Laerm;46714;50.118;14.462;2024-03-23T10:33:09;74.78;71.30;81.30;;
60872;Laerm;46714;50.118;14.462;2024-03-23T10:35:39;74.30;69.14;80.44;;
60872;Laerm;46714;50.118;14.462;2024-03-23T10:38:05;74.55;69.69;78.54;;
60872;Laerm;46714;50.118;14.462;2024-03-23T10:40:34;74.95;70.78;83.44;;
60872;Laerm;46714;50.118;14.462;2024-03-23T10:43:00;74.22;69.93;78.08;;
60872;Laerm;46714;50.118;14.462;2024-03-23T10:45:26;73.99;70.38;77.08;;
60872;Laerm;46714;50.118;14.462;2024-03-23T10:47:51;73.98;69.80;77.66;;
60872;Laerm;46714;50.118;14.462;2024-03-23T10:50:17;74.94;70.18;80.15;;
60872;Laerm;46714;50.118;14.462;2024-03-23T10:52:47;74.15;69.78;78.21;;
60872;Laerm;46714;50.118;14.462;2024-03-23T10:55:14;74.48;69.01;79.28;;
60872;Laerm;46714;50.118;14.462;2024-03-23T11:00:10;74.07;69.77;77.77;;
60872;Laerm;46714;50.118;14.462;2024-03-23T11:02:36;74.52;70.64;78.04;;
60872;Laerm;46714;50.118;14.462;2024-03-23T11:05:01;74.05;70.26;78.40;;
60872;Laerm;46714;50.118;14.462;2024-03-23T11:09:53;73.95;68.54;80.84;;
60872;Laerm;46714;50.118;14.462;2024-03-23T11:14:48;74.08;69.28;77.86;;
60872;Laerm;46714;50.118;14.462;2024-03-23T11:17:19;73.61;68.00;77.56;;
60872;Laerm;46714;50.118;14.462;2024-03-23T11:19:56;73.98;69.95;78.28;;
60872;Laerm;46714;50.118;14.462;2024-03-23T11:25:02;73.72;68.14;77.78;;
60872;Laerm;46714;50.118;14.462;2024-03-23T11:27:28;74.06;67.55;80.35;;
60872;Laerm;46714;50.118;14.462;2024-03-23T11:29:53;73.98;70.12;78.28;;
60872;Laerm;46714;50.118;14.462;2024-03-23T11:32:18;74.70;67.74;82.84;;
60872;Laerm;46714;50.118;14.462;2024-03-23T11:34:44;74.24;67.31;79.25;;
60872;Laerm;46714;50.118;14.462;2024-03-23T11:37:09;74.31;69.18;77.49;;
60872;Laerm;46714;50.118;14.462;2024-03-23T11:39:35;74.19;67.12;78.24;;
60872;Laerm;46714;50.118;14.462;2024-03-23T11:42:00;74.10;70.16;77.97;;
60872;Laerm;46714;50.118;14.462;2024-03-23T11:44:26;74.29;70.24;82.50;;
60872;Laerm;46714;50.118;14.462;2024-03-23T11:46:52;75.02;70.48;86.35;;
60872;Laerm;46714;50.118;14.462;2024-03-23T11:49:21;75.10;69.31;89.59;;
60872;Laerm;46714;50.118;14.462;2024-03-23T11:51:48;73.73;69.34;77.40;;
60872;Laerm;46714;50.118;14.462;2024-03-23T11:54:13;74.10;68.43;77.85;;
60872;Laerm;46714;50.118;14.462;2024-03-23T11:56:38;74.11;66.76;79.44;;
60872;Laerm;46714;50.118;14.462;2024-03-23T11:59:04;74.59;68.72;82.95;;
60872;Laerm;46714;50.118;14.462;2024-03-23T12:01:29;74.43;69.21;86.89;;
60872;Laerm;46714;50.118;14.462;2024-03-23T12:03:54;74.46;69.17;83.46;;
60872;Laerm;46714;50.118;14.462;2024-03-23T12:06:20;78.16;68.05;99.71;;
60872;Laerm;46714;50.118;14.462;2024-03-23T12:08:45;73.62;65.60;81.72;;
60872;Laerm;46714;50.118;14.462;2024-03-23T12:11:12;74.27;70.34;78.49;;
60872;Laerm;46714;50.118;14.462;2024-03-23T12:13:41;75.79;68.40;89.02;;
60872;Laerm;46714;50.118;14.462;2024-03-23T12:16:20;74.53;68.83;87.51;;
60872;Laerm;46714;50.118;14.462;2024-03-23T12:18:47;75.25;70.40;85.55;;
60872;Laerm;46714;50.118;14.462;2024-03-23T12:21:14;74.01;67.98;82.65;;
60872;Laerm;46714;50.118;14.462;2024-03-23T12:23:40;74.42;67.94;79.89;;
60872;Laerm;46714;50.118;14.462;2024-03-23T12:26:05;74.29;68.79;79.17;;
60872;Laerm;46714;50.118;14.462;2024-03-23T12:28:32;74.38;69.79;79.05;;
60872;Laerm;46714;50.118;14.462;2024-03-23T12:30:57;81.10;69.95;103.65;;
60872;Laerm;46714;50.118;14.462;2024-03-23T12:33:23;76.32;68.14;93.11;;
60872;Laerm;46714;50.118;14.462;2024-03-23T12:35:50;74.81;68.52;85.59;;
60872;Laerm;46714;50.118;14.462;2024-03-23T12:38:15;74.01;68.30;80.87;;
60872;Laerm;46714;50.118;14.462;2024-03-23T12:40:41;74.65;68.65;80.79;;
60872;Laerm;46714;50.118;14.462;2024-03-23T12:43:06;74.21;64.28;85.73;;
60872;Laerm;46714;50.118;14.462;2024-03-23T12:45:33;73.95;68.76;80.13;;
60872;Laerm;46714;50.118;14.462;2024-03-23T12:47:58;73.99;68.96;77.76;;
60872;Laerm;46714;50.118;14.462;2024-03-23T12:50:23;74.43;68.99;86.05;;
60872;Laerm;46714;50.118;14.462;2024-03-23T12:52:49;75.10;68.72;82.12;;
60872;Laerm;46714;50.118;14.462;2024-03-23T12:55:14;74.58;68.94;82.08;;
60872;Laerm;46714;50.118;14.462;2024-03-23T12:57:40;74.54;69.30;78.17;;
60872;Laerm;46714;50.118;14.462;2024-03-23T13:00:08;73.96;69.14;81.36;;
60872;Laerm;46714;50.118;14.462;2024-03-23T13:02:37;75.05;65.49;90.26;;
60872;Laerm;46714;50.118;14.462;2024-03-23T13:05:04;82.95;70.27;108.84;;
60872;Laerm;46714;50.118;14.462;2024-03-23T13:07:29;73.97;68.87;79.38;;
60872;Laerm;46714;50.118;14.462;2024-03-23T13:09:54;74.40;67.89;81.47;;
60872;Laerm;46714;50.118;14.462;2024-03-23T13:12:22;74.50;69.50;84.15;;
60872;Laerm;46714;50.118;14.462;2024-03-23T13:14:47;74.22;69.41;80.47;;
60872;Laerm;46714;50.118;14.462;2024-03-23T13:17:13;74.49;69.77;78.31;;
60872;Laerm;46714;50.118;14.462;2024-03-23T13:19:38;74.48;71.00;80.22;;
60872;Laerm;46714;50.118;14.462;2024-03-23T13:22:04;76.35;70.50;96.73;;
60872;Laerm;46714;50.118;14.462;2024-03-23T13:24:30;74.41;69.66;80.64;;
60872;Laerm;46714;50.118;14.462;2024-03-23T13:26:56;73.59;68.25;78.09;;
60872;Laerm;46714;50.118;14.462;2024-03-23T13:29:23;74.19;70.46;79.35;;
60872;Laerm;46714;50.118;14.462;2024-03-23T13:31:49;74.36;67.22;80.64;;
60872;Laerm;46714;50.118;14.462;2024-03-23T13:34:16;74.39;69.38;78.41;;
60872;Laerm;46714;50.118;14.462;2024-03-23T13:36:45;73.89;68.89;77.84;;
60872;Laerm;46714;50.118;14.462;2024-03-23T13:39:11;74.21;68.55;78.74;;
60872;Laerm;46714;50.118;14.462;2024-03-23T13:41:40;74.14;68.69;78.68;;
60872;Laerm;46714;50.118;14.462;2024-03-23T13:44:06;73.42;67.30;77.74;;
60872;Laerm;46714;50.118;14.462;2024-03-23T13:46:33;74.41;68.40;85.35;;
60872;Laerm;46714;50.118;14.462;2024-03-23T13:48:58;74.04;68.82;83.29;;
60872;Laerm;46714;50.118;14.462;2024-03-23T13:51:25;76.02;69.05;96.17;;
60872;Laerm;46714;50.118;14.462;2024-03-23T13:53:55;76.36;70.12;94.38;;
60872;Laerm;46714;50.118;14.462;2024-03-23T13:56:24;74.22;69.63;78.94;;
60872;Laerm;46714;50.118;14.462;2024-03-23T13:58:50;74.62;71.59;80.63;;
60872;Laerm;46714;50.118;14.462;2024-03-23T14:01:16;73.76;65.60;82.94;;
60872;Laerm;46714;50.118;14.462;2024-03-23T14:03:42;74.23;67.75;81.06;;
60872;Laerm;46714;50.118;14.462;2024-03-23T14:06:08;73.74;67.03;77.55;;
60872;Laerm;46714;50.118;14.462;2024-03-23T14:08:37;74.47;68.91;79.00;;
60872;Laerm;46714;50.118;14.462;2024-03-23T14:11:06;74.78;68.77;79.48;;
60872;Laerm;46714;50.118;14.462;2024-03-23T14:13:32;74.19;68.82;78.90;;
60872;Laerm;46714;50.118;14.462;2024-03-23T14:15:58;74.23;69.00;83.76;;
60872;Laerm;46714;50.118;14.462;2024-03-23T14:18:24;73.52;69.19;78.39;;
60872;Laerm;46714;50.118;14.462;2024-03-23T14:20:49;74.06;69.75;78.84;;
60872;Laerm;46714;50.118;14.462;2024-03-23T14:23:15;74.10;68.19;85.03;;
60872;Laerm;46714;50.118;14.462;2024-03-23T14:25:41;74.75;68.50;80.43;;
60872;Laerm;46714;50.118;14.462;2024-03-23T14:28:06;74.32;69.56;78.60;;
60872;Laerm;46714;50.118;14.462;2024-03-23T14:30:38;73.81;68.57;78.01;;
60872;Laerm;46714;50.118;14.462;2024-03-23T14:33:04;74.49;68.26;78.93;;